Time;durP1;ratioP1;P1;durP2;ratioP2;P2;SDS_P1;SDS_P2;PMS_P1;PMS_P2;Temp;Humidity;BMP_temperature;BMP_pressure;BME280_temperature;BME280_humidity;BME280_pressure;Samples;Min_cycle;Max_cycle;Signal;HPM_P1;HPM_P2
2021/01/08 00:01:14;;;;;;;3.37;1.93;;;;;;;;;;5014750;28;20384;-57
2021/01/08 00:03:41;;;;;;;3.50;1.97;;;;;;;;;;5015393;28;20424;-57
2021/01/08 00:06:08;;;;;;;6.97;1.90;;;;;;;;;;5015251;28;20487;-57
2021/01/08 00:08:35;;;;;;;2.17;1.50;;;;;;;;;;5015255;28;20025;-57
2021/01/08 00:11:01;;;;;;;4.50;2.10;;;;;;;;;;5015184;28;20034;-57
2021/01/08 00:13:28;;;;;;;4.40;2.10;;;;;;;;;;5015006;28;20026;-57
2021/01/08 00:15:55;;;;;;;3.33;1.80;;;;;;;;;;5015133;28;20158;-57
2021/01/08 00:18:22;;;;;;;11.33;2.70;;;;;;;;;;5014911;28;20026;-57
2021/01/08 00:20:48;;;;;;;6.07;2.40;;;;;;;;;;5014945;28;20026;-57
2021/01/08 00:23:15;;;;;;;2.97;1.60;;;;;;;;;;5015303;28;20049;-57
2021/01/08 00:25:42;;;;;;;4.17;2.03;;;;;;;;;;5015200;28;20132;-57
2021/01/08 00:28:09;;;;;;;4.03;2.10;;;;;;;;;;5014905;28;20476;-57
2021/01/08 00:30:36;;;;;;;4.23;2.00;;;;;;;;;;5014771;28;20465;-57
2021/01/08 00:33:02;;;;;;;5.40;2.57;;;;;;;;;;5014711;28;20049;-57
2021/01/08 00:35:29;;;;;;;3.97;2.50;;;;;;;;;;5014664;28;20060;-57
2021/01/08 00:37:56;;;;;;;7.33;2.70;;;;;;;;;;5014586;28;20037;-57
2021/01/08 00:40:23;;;;;;;4.23;2.10;;;;;;;;;;5014430;28;20465;-57
2021/01/08 00:42:49;;;;;;;5.07;2.30;;;;;;;;;;5014519;28;20040;-57
2021/01/08 00:45:16;;;;;;;6.60;2.83;;;;;;;;;;5014505;28;20057;-57
2021/01/08 00:47:43;;;;;;;9.33;3.67;;;;;;;;;;5014457;28;20029;-57
2021/01/08 00:50:10;;;;;;;11.23;3.20;;;;;;;;;;5014323;28;20053;-57
2021/01/08 00:52:37;;;;;;;14.33;3.03;;;;;;;;;;5014240;28;20066;-57
2021/01/08 00:55:04;;;;;;;6.13;2.37;;;;;;;;;;5014395;28;20172;-57
2021/01/08 00:57:31;;;;;;;7.90;2.80;;;;;;;;;;5014247;28;20104;-57
2021/01/08 00:59:58;;;;;;;5.57;2.10;;;;;;;;;;5014058;28;20125;-57
2021/01/08 01:02:25;;;;;;;5.10;2.40;;;;;;;;;;5014320;28;20032;-57
2021/01/08 01:04:52;;;;;;;3.27;1.87;;;;;;;;;;5014252;28;20072;-57
2021/01/08 01:07:18;;;;;;;6.30;2.00;;;;;;;;;;5014156;28;20093;-57
2021/01/08 01:09:45;;;;;;;3.23;1.97;;;;;;;;;;5014126;28;20029;-57
2021/01/08 01:12:12;;;;;;;6.93;1.90;;;;;;;;;;5013264;28;20038;-57
2021/01/08 01:14:39;;;;;;;4.83;2.20;;;;;;;;;;5014005;28;20029;-57
2021/01/08 01:17:06;;;;;;;4.57;2.40;;;;;;;;;;5014030;28;20022;-57
2021/01/08 01:19:33;;;;;;;5.77;2.27;;;;;;;;;;5013862;28;20465;-58
2021/01/08 01:22:00;;;;;;;4.07;2.37;;;;;;;;;;5013946;28;20037;-59
2021/01/08 01:24:27;;;;;;;4.50;2.50;;;;;;;;;;5014568;28;20054;-58
2021/01/08 01:26:55;;;;;;;17.03;2.90;;;;;;;;;;5013774;28;20030;-58
2021/01/08 01:29:23;;;;;;;9.57;2.50;;;;;;;;;;5013724;28;20026;-57
2021/01/08 01:31:49;;;;;;;8.27;2.13;;;;;;;;;;5013633;28;20511;-57
2021/01/08 01:34:16;;;;;;;7.10;2.63;;;;;;;;;;5013787;28;20040;-58
2021/01/08 01:36:45;;;;;;;17.37;3.07;;;;;;;;;;5013642;28;20034;-57
2021/01/08 01:39:11;;;;;;;9.43;2.20;;;;;;;;;;5013465;28;20085;-57
2021/01/08 01:41:39;;;;;;;4.30;2.00;;;;;;;;;;5013632;28;20096;-58
2021/01/08 01:44:06;;;;;;;7.37;2.77;;;;;;;;;;5013345;28;20030;-57
2021/01/08 01:46:32;;;;;;;4.00;2.17;;;;;;;;;;5013587;28;20037;-57
2021/01/08 01:48:59;;;;;;;4.43;2.40;;;;;;;;;;5013432;28;20030;-57
2021/01/08 01:51:26;;;;;;;5.47;2.70;;;;;;;;;;5013275;28;20495;-58
2021/01/08 01:53:53;;;;;;;7.50;2.70;;;;;;;;;;5013348;28;20026;-57
2021/01/08 01:56:21;;;;;;;7.17;2.57;;;;;;;;;;5013289;28;20400;-57
2021/01/08 01:58:48;;;;;;;4.00;2.23;;;;;;;;;;5013181;28;20496;-57
2021/01/08 02:01:15;;;;;;;4.83;2.73;;;;;;;;;;5013276;28;20026;-57
2021/01/08 02:03:57;;;;;;;11.30;4.00;;;;;;;;;;5013024;28;20084;-58
2021/01/08 02:06:37;;;;;;;5.13;3.13;;;;;;;;;;4995602;28;20554;-58
2021/01/08 02:09:09;;;;;;;4.83;2.60;;;;;;;;;;5013191;28;20026;-58
2021/01/08 02:11:36;;;;;;;6.10;2.80;;;;;;;;;;5013117;28;20048;-57
2021/01/08 02:14:07;;;;;;;8.20;3.23;;;;;;;;;;5013140;28;20109;-58
2021/01/08 02:16:35;;;;;;;6.00;2.83;;;;;;;;;;5013070;28;20025;-58
2021/01/08 02:19:05;;;;;;;5.40;2.87;;;;;;;;;;5012874;28;20025;-57
2021/01/08 02:21:38;;;;;;;5.90;2.83;;;;;;;;;;5013360;28;20507;-58
2021/01/08 02:24:22;;;;;;;11.27;4.50;;;;;;;;;;5013581;28;20057;-57
2021/01/08 02:26:50;;;;;;;6.38;3.22;;;;;;;;;;5013020;28;20034;-57
2021/01/08 02:29:18;;;;;;;13.07;3.90;;;;;;;;;;5012824;28;20021;-57
2021/01/08 02:31:45;;;;;;;9.63;3.00;;;;;;;;;;5012780;28;20033;-57
2021/01/08 02:34:12;;;;;;;4.93;2.47;;;;;;;;;;5012987;28;20021;-58
2021/01/08 02:36:40;;;;;;;6.03;2.20;;;;;;;;;;5012947;28;20057;-58
2021/01/08 02:39:08;;;;;;;3.30;2.10;;;;;;;;;;5012556;28;20030;-57
2021/01/08 02:41:36;;;;;;;4.63;2.40;;;;;;;;;;5012506;28;20073;-57
2021/01/08 02:44:04;;;;;;;4.07;2.00;;;;;;;;;;5012756;28;20030;-57
2021/01/08 02:46:30;;;;;;;6.60;2.23;;;;;;;;;;5012881;28;20137;-57
2021/01/08 02:48:57;;;;;;;8.00;2.10;;;;;;;;;;5012731;28;20069;-57
2021/01/08 02:51:24;;;;;;;6.50;2.00;;;;;;;;;;5012773;28;20073;-57
2021/01/08 02:53:51;;;;;;;4.40;1.80;;;;;;;;;;5012695;28;20110;-57
2021/01/08 02:56:24;;;;;;;4.47;1.70;;;;;;;;;;5012638;28;20112;-58
2021/01/08 02:58:53;;;;;;;5.57;2.33;;;;;;;;;;5012567;28;20492;-57
2021/01/08 03:01:20;;;;;;;7.77;2.40;;;;;;;;;;5012732;28;20369;-57
2021/01/08 03:03:47;;;;;;;4.43;2.10;;;;;;;;;;5012685;28;20566;-57
2021/01/08 03:06:14;;;;;;;10.90;2.03;;;;;;;;;;5012955;28;20149;-57
2021/01/08 03:08:41;;;;;;;7.03;2.77;;;;;;;;;;5012514;28;20036;-57
2021/01/08 03:11:08;;;;;;;10.83;2.93;;;;;;;;;;5012413;28;20116;-57
2021/01/08 03:13:36;;;;;;;9.53;2.90;;;;;;;;;;5012511;28;20033;-57
2021/01/08 03:16:02;;;;;;;9.27;3.00;;;;;;;;;;5012634;28;20022;-57
2021/01/08 03:18:29;;;;;;;14.30;3.00;;;;;;;;;;5012419;28;20025;-57
2021/01/08 03:20:56;;;;;;;7.30;2.60;;;;;;;;;;5012540;28;20030;-57
2021/01/08 03:23:23;;;;;;;5.10;2.60;;;;;;;;;;5012563;28;20062;-57
2021/01/08 03:25:49;;;;;;;5.43;3.07;;;;;;;;;;5013253;28;20054;-57
2021/01/08 03:28:17;;;;;;;5.37;3.07;;;;;;;;;;5012378;28;20030;-57
2021/01/08 03:30:44;;;;;;;4.43;2.63;;;;;;;;;;5012409;28;20014;-57
2021/01/08 03:33:11;;;;;;;4.37;2.57;;;;;;;;;;5012459;28;20036;-57
2021/01/08 03:35:38;;;;;;;5.03;2.70;;;;;;;;;;5014373;28;20022;-57
2021/01/08 03:38:05;;;;;;;4.40;2.40;;;;;;;;;;5015725;28;20030;-57
2021/01/08 03:40:33;;;;;;;3.83;2.10;;;;;;;;;;5015884;28;20178;-57
2021/01/08 03:43:00;;;;;;;3.93;2.37;;;;;;;;;;5015726;28;20041;-57
2021/01/08 03:45:27;;;;;;;5.67;2.80;;;;;;;;;;5015752;28;20479;-57
2021/01/08 03:47:53;;;;;;;4.07;2.50;;;;;;;;;;4998050;28;20520;-57
2021/01/08 03:50:20;;;;;;;5.13;2.50;;;;;;;;;;5015544;28;20423;-57
2021/01/08 03:52:47;;;;;;;4.97;2.50;;;;;;;;;;5015660;28;20060;-57
2021/01/08 03:55:14;;;;;;;4.37;2.47;;;;;;;;;;5015628;28;20104;-57
2021/01/08 03:57:41;;;;;;;5.07;2.70;;;;;;;;;;5015407;28;20034;-57
2021/01/08 04:00:11;;;;;;;5.33;2.90;;;;;;;;;;5015437;28;20018;-57
2021/01/08 04:02:38;;;;;;;6.03;2.93;;;;;;;;;;5015720;28;20037;-57
2021/01/08 04:05:05;;;;;;;5.30;2.63;;;;;;;;;;4997724;28;20477;-57
2021/01/08 04:07:32;;;;;;;6.30;2.67;;;;;;;;;;5015181;28;20498;-58
2021/01/08 04:09:59;;;;;;;8.67;3.40;;;;;;;;;;5015293;28;20021;-58
2021/01/08 04:12:27;;;;;;;7.37;3.23;;;;;;;;;;5015456;28;20496;-58
2021/01/08 04:14:53;;;;;;;8.20;2.77;;;;;;;;;;5014943;28;20030;-57
2021/01/08 04:17:20;;;;;;;5.83;2.93;;;;;;;;;;5015080;28;20029;-57
2021/01/08 04:19:47;;;;;;;5.93;2.77;;;;;;;;;;5014883;28;20045;-57
2021/01/08 04:22:14;;;;;;;9.60;2.60;;;;;;;;;;5014648;28;20030;-57
2021/01/08 04:24:41;;;;;;;6.33;2.60;;;;;;;;;;5015827;28;20046;-57
2021/01/08 04:27:08;;;;;;;6.97;2.70;;;;;;;;;;5014908;28;20061;-57
2021/01/08 04:29:37;;;;;;;8.53;2.87;;;;;;;;;;5014811;28;20026;-57
2021/01/08 04:32:09;;;;;;;6.73;3.40;;;;;;;;;;5014999;28;20057;-57
2021/01/08 04:34:38;;;;;;;6.60;3.10;;;;;;;;;;5014744;28;20053;-57
2021/01/08 04:37:05;;;;;;;8.97;3.03;;;;;;;;;;5014870;28;20025;-57
2021/01/08 04:39:35;;;;;;;5.13;3.13;;;;;;;;;;5014854;28;20026;-57
2021/01/08 04:42:02;;;;;;;7.20;3.17;;;;;;;;;;5014593;28;20324;-57
2021/01/08 04:44:29;;;;;;;5.43;2.47;;;;;;;;;;5014514;28;20017;-57
2021/01/08 04:46:56;;;;;;;8.77;2.87;;;;;;;;;;5014477;28;20492;-57
2021/01/08 04:49:24;;;;;;;5.20;2.40;;;;;;;;;;5014133;28;20066;-57
2021/01/08 04:51:52;;;;;;;6.20;3.07;;;;;;;;;;5014093;28;20068;-57
2021/01/08 04:54:19;;;;;;;5.33;2.90;;;;;;;;;;5014678;28;20022;-57
2021/01/08 04:56:47;;;;;;;4.17;2.30;;;;;;;;;;5014307;28;20037;-57
2021/01/08 04:59:14;;;;;;;6.47;2.40;;;;;;;;;;5014156;28;20553;-57
2021/01/08 05:01:41;;;;;;;4.40;2.03;;;;;;;;;;5014141;28;20495;-57
2021/01/08 05:04:08;;;;;;;5.13;1.97;;;;;;;;;;5014151;28;20033;-57
2021/01/08 05:06:35;;;;;;;3.67;1.70;;;;;;;;;;5014175;28;20018;-57
2021/01/08 05:09:02;;;;;;;2.87;1.63;;;;;;;;;;5014159;28;20026;-57
2021/01/08 05:11:31;;;;;;;3.83;1.60;;;;;;;;;;5013832;28;20480;-57
2021/01/08 05:13:59;;;;;;;3.73;1.60;;;;;;;;;;5013956;28;20076;-57
2021/01/08 05:16:28;;;;;;;3.73;1.13;;;;;;;;;;5013964;28;20427;-56
2021/01/08 05:18:55;;;;;;;2.57;1.30;;;;;;;;;;5013658;28;20028;-57
2021/01/08 05:21:25;;;;;;;3.17;1.10;;;;;;;;;;5013674;28;20029;-57
2021/01/08 05:23:52;;;;;;;1.23;0.97;;;;;;;;;;5013623;28;20065;-57
2021/01/08 05:26:19;;;;;;;6.50;1.17;;;;;;;;;;5013694;28;20129;-57
2021/01/08 05:28:56;;;;;;;3.13;1.10;;;;;;;;;;5013598;28;20061;-57
2021/01/08 05:31:24;;;;;;;2.73;1.20;;;;;;;;;;5013704;28;20501;-57
2021/01/08 05:33:51;;;;;;;5.77;1.23;;;;;;;;;;5013738;28;20377;-57
2021/01/08 05:36:17;;;;;;;7.00;1.70;;;;;;;;;;5013767;28;20034;-57
2021/01/08 05:38:55;;;;;;;2.87;1.53;;;;;;;;;;5013714;28;20026;-57
2021/01/08 05:41:29;;;;;;;3.70;1.67;;;;;;;;;;5013714;28;20052;-57
2021/01/08 05:43:57;;;;;;;4.77;2.13;;;;;;;;;;5013581;28;20464;-57
2021/01/08 05:46:31;;;;;;;4.90;2.30;;;;;;;;;;5013604;28;20029;-57
2021/01/08 05:49:05;;;;;;;5.17;2.90;;;;;;;;;;4995921;28;20030;-57
2021/01/08 05:51:33;;;;;;;7.07;2.22;;;;;;;;;;5013452;28;20050;-57
2021/01/08 05:54:01;;;;;;;5.33;2.43;;;;;;;;;;5013412;28;20052;-57
2021/01/08 05:56:28;;;;;;;8.27;2.53;;;;;;;;;;5013385;28;20416;-57
2021/01/08 05:58:54;;;;;;;5.33;2.20;;;;;;;;;;5012649;28;20354;-57
2021/01/08 06:01:21;;;;;;;5.63;2.63;;;;;;;;;;5013342;28;20080;-57
2021/01/08 06:03:48;;;;;;;4.20;2.30;;;;;;;;;;5013286;28;20423;-57
2021/01/08 06:06:15;;;;;;;4.13;2.07;;;;;;;;;;5013297;28;20095;-57
2021/01/08 06:08:44;;;;;;;6.70;2.60;;;;;;;;;;5013541;28;20579;-57
2021/01/08 06:11:30;;;;;;;6.93;3.33;;;;;;;;;;5013250;28;20033;-57
2021/01/08 06:13:57;;;;;;;4.20;2.23;;;;;;;;;;5013194;28;20421;-57
2021/01/08 06:16:24;;;;;;;5.13;2.37;;;;;;;;;;5013181;28;20029;-57
2021/01/08 06:18:56;;;;;;;4.70;2.20;;;;;;;;;;5013075;28;20084;-57
2021/01/08 06:21:34;;;;;;;4.07;2.27;;;;;;;;;;5013192;28;20250;-57
2021/01/08 06:24:01;;;;;;;14.23;4.00;;;;;;;;;;5013410;28;20033;-57
2021/01/08 06:26:29;;;;;;;6.20;2.37;;;;;;;;;;5012914;28;20054;-57
2021/01/08 06:29:00;;;;;;;6.17;2.30;;;;;;;;;;5012952;28;20085;-57
2021/01/08 06:31:36;;;;;;;3.83;2.43;;;;;;;;;;5012906;28;20040;-57
2021/01/08 06:34:03;;;;;;;5.20;1.87;;;;;;;;;;5012841;28;20068;-57
2021/01/08 06:36:33;;;;;;;3.53;1.90;;;;;;;;;;5012847;28;20030;-57
2021/01/08 06:39:06;;;;;;;4.80;1.97;;;;;;;;;;5012782;28;20025;-57
2021/01/08 06:41:33;;;;;;;3.73;2.03;;;;;;;;;;5012953;28;20073;-57
2021/01/08 06:44:06;;;;;;;3.60;1.90;;;;;;;;;;5012940;28;20080;-57
2021/01/08 06:46:40;;;;;;;4.17;2.10;;;;;;;;;;5012948;28;20028;-57
2021/01/08 06:49:11;;;;;;;4.07;2.27;;;;;;;;;;5012791;28;20040;-57
2021/01/08 06:51:39;;;;;;;5.57;2.27;;;;;;;;;;5012641;28;20045;-57
2021/01/08 06:54:07;;;;;;;7.13;2.00;;;;;;;;;;5012626;28;20028;-57
2021/01/08 06:56:38;;;;;;;6.67;1.80;;;;;;;;;;5012794;28;20473;-57
2021/01/08 06:59:05;;;;;;;5.27;1.70;;;;;;;;;;5012483;28;20105;-57
2021/01/08 07:01:35;;;;;;;3.47;1.83;;;;;;;;;;5012566;28;20025;-57
2021/01/08 07:04:02;;;;;;;2.77;1.80;;;;;;;;;;5012503;28;20029;-57
2021/01/08 07:06:29;;;;;;;3.33;1.80;;;;;;;;;;5012649;28;20354;-57
2021/01/08 07:08:55;;;;;;;3.27;1.60;;;;;;;;;;5012671;28;20033;-57
2021/01/08 07:11:25;;;;;;;6.07;1.90;;;;;;;;;;5015848;28;20061;-57
2021/01/08 07:14:13;;;;;;;3.73;1.97;;;;;;;;;;5016366;28;20021;-57
2021/01/08 07:16:45;;;;;;;5.33;1.80;;;;;;;;;;5016230;28;20516;-57
2021/01/08 07:19:14;;;;;;;2.57;1.63;;;;;;;;;;5016006;28;20030;-57
2021/01/08 07:21:47;;;;;;;3.43;1.77;;;;;;;;;;5016161;28;20032;-57
2021/01/08 07:24:15;;;;;;;5.53;2.20;;;;;;;;;;5016760;28;20121;-57
2021/01/08 07:26:42;;;;;;;2.67;1.60;;;;;;;;;;5016007;28;20041;-57
2021/01/08 07:29:09;;;;;;;8.67;1.70;;;;;;;;;;5016039;28;20058;-57
2021/01/08 07:31:38;;;;;;;4.93;1.90;;;;;;;;;;5016116;28;20046;-57
2021/01/08 07:34:05;;;;;;;4.63;2.10;;;;;;;;;;5015943;28;20024;-57
2021/01/08 07:36:33;;;;;;;2.53;1.70;;;;;;;;;;5015899;28;20454;-57
2021/01/08 07:39:00;;;;;;;3.33;1.70;;;;;;;;;;5015893;28;20097;-57
2021/01/08 07:41:31;;;;;;;2.17;1.30;;;;;;;;;;5015868;28;20032;-57
2021/01/08 07:43:57;;;;;;;2.10;1.30;;;;;;;;;;5015693;28;20026;-57
2021/01/08 07:46:31;;;;;;;3.70;1.83;;;;;;;;;;5015809;28;20049;-57
2021/01/08 07:48:59;;;;;;;4.87;2.00;;;;;;;;;;5015563;28;20460;-57
2021/01/08 07:51:45;;;;;;;4.43;1.70;;;;;;;;;;5015585;28;20146;-57
2021/01/08 07:54:12;;;;;;;3.33;1.70;;;;;;;;;;5015620;28;20025;-57
2021/01/08 07:56:58;;;;;;;3.80;2.13;;;;;;;;;;5015633;28;20052;-57
2021/01/08 07:59:34;;;;;;;3.23;1.97;;;;;;;;;;5015478;28;20026;-57
2021/01/08 08:02:01;;;;;;;3.00;2.00;;;;;;;;;;5015549;28;20033;-57
2021/01/08 08:04:28;;;;;;;2.73;1.67;;;;;;;;;;5015473;28;20026;-57
2021/01/08 08:06:56;;;;;;;2.70;1.70;;;;;;;;;;5015977;28;20029;-57
2021/01/08 08:09:23;;;;;;;6.10;1.50;;;;;;;;;;5015507;28;20109;-57
2021/01/08 08:11:49;;;;;;;3.33;1.67;;;;;;;;;;5015075;28;20402;-57
2021/01/08 08:14:17;;;;;;;2.47;1.70;;;;;;;;;;5015143;28;20481;-57
2021/01/08 08:16:44;;;;;;;3.90;1.63;;;;;;;;;;5015015;28;20475;-57
2021/01/08 08:19:12;;;;;;;5.03;2.03;;;;;;;;;;5014938;28;20481;-57
2021/01/08 08:21:39;;;;;;;4.63;2.10;;;;;;;;;;5014604;28;20271;-57
2021/01/08 08:24:06;;;;;;;4.83;2.00;;;;;;;;;;5014891;28;20218;-57
2021/01/08 08:26:34;;;;;;;3.77;1.77;;;;;;;;;;5015645;28;20452;-57
2021/01/08 08:29:02;;;;;;;4.50;1.77;;;;;;;;;;5014788;28;20088;-57
2021/01/08 08:31:29;;;;;;;3.30;1.93;;;;;;;;;;5014645;28;20030;-57
2021/01/08 08:33:57;;;;;;;3.67;1.90;;;;;;;;;;5014811;28;20032;-57
2021/01/08 08:36:27;;;;;;;3.10;1.87;;;;;;;;;;5014842;28;20476;-57
2021/01/08 08:38:57;;;;;;;4.47;2.00;;;;;;;;;;5014606;28;20109;-57
2021/01/08 08:41:24;;;;;;;3.30;1.90;;;;;;;;;;5014561;28;20022;-57
2021/01/08 08:43:59;;;;;;;5.77;2.17;;;;;;;;;;5014699;28;20038;-57
2021/01/08 08:46:26;;;;;;;6.45;2.20;;;;;;;;;;5014507;28;20118;-57
2021/01/08 08:48:53;;;;;;;3.00;2.03;;;;;;;;;;5014408;28;20041;-57
2021/01/08 08:51:26;;;;;;;3.73;2.10;;;;;;;;;;5014276;28;20042;-57
2021/01/08 08:53:59;;;;;;;3.67;2.10;;;;;;;;;;5014785;28;20101;-57
2021/01/08 08:56:26;;;;;;;3.97;2.40;;;;;;;;;;5014234;28;20030;-57
2021/01/08 08:58:52;;;;;;;4.77;2.60;;;;;;;;;;5014273;28;20021;-57
2021/01/08 09:01:19;;;;;;;3.30;2.20;;;;;;;;;;5014335;28;20080;-57
2021/01/08 09:03:46;;;;;;;3.17;2.23;;;;;;;;;;5014121;28;20279;-57
2021/01/08 09:06:13;;;;;;;3.77;2.13;;;;;;;;;;5014122;28;20018;-57
2021/01/08 09:08:40;;;;;;;3.10;2.00;;;;;;;;;;5014176;28;20626;-57
2021/01/08 09:11:20;;;;;;;3.33;2.13;;;;;;;;;;5014028;28;20033;-57
2021/01/08 09:13:59;;;;;;;3.50;2.10;;;;;;;;;;5013961;28;20611;-57
2021/01/08 09:16:28;;;;;;;3.73;2.17;;;;;;;;;;5014000;28;20034;-57
2021/01/08 09:19:16;;;;;;;3.10;1.87;;;;;;;;;;5013918;28;20256;-57
2021/01/08 09:21:49;;;;;;;4.17;1.80;;;;;;;;;;5014023;28;20388;-57
2021/01/08 09:24:35;;;;;;;2.60;1.80;;;;;;;;;;5013941;28;20247;-57
2021/01/08 09:27:03;;;;;;;3.80;2.13;;;;;;;;;;4994293;28;20675;-57
2021/01/08 09:29:31;;;;;;;6.37;2.37;;;;;;;;;;4994230;28;20343;-57
2021/01/08 09:31:59;;;;;;;3.50;1.67;;;;;;;;;;4993638;28;20639;-57
2021/01/08 09:34:26;;;;;;;3.33;2.00;;;;;;;;;;4993947;28;20252;-57
2021/01/08 09:36:54;;;;;;;4.57;2.57;;;;;;;;;;4994168;28;20465;-57
2021/01/08 09:39:22;;;;;;;4.77;2.90;;;;;;;;;;4994067;28;20271;-57
2021/01/08 09:41:59;;;;;;;4.43;2.57;;;;;;;;;;4993987;28;20267;-57
2021/01/08 09:44:35;;;;;;;3.70;2.23;;;;;;;;;;4994032;28;20256;-57
2021/01/08 09:47:06;;;;;;;5.70;2.63;;;;;;;;;;4993852;28;20264;-57
2021/01/08 09:49:45;;;;;;;3.50;2.37;;;;;;;;;;4993736;28;20264;-57
2021/01/08 09:52:12;;;;;;;3.87;2.50;;;;;;;;;;4993746;28;20292;-57
2021/01/08 09:54:49;;;;;;;4.57;2.57;;;;;;;;;;4976349;28;20765;-57
2021/01/08 09:57:34;;;;;;;3.93;2.63;;;;;;;;;;4994065;28;20854;-57
2021/01/08 10:00:08;;;;;;;3.58;2.05;;;;;;;;;;4993779;28;20260;-57
2021/01/08 10:02:34;;;;;;;3.83;2.33;;;;;;;;;;4993755;28;20026;-57
2021/01/08 10:05:01;;;;;;;5.23;3.40;;;;;;;;;;4993663;28;20239;-57
2021/01/08 10:07:39;;;;;;;3.40;2.30;;;;;;;;;;4993512;28;20735;-57
2021/01/08 10:10:06;;;;;;;4.07;2.47;;;;;;;;;;4993600;28;20257;-57
2021/01/08 10:12:43;;;;;;;4.47;2.17;;;;;;;;;;4993480;28;20320;-57
2021/01/08 10:15:10;;;;;;;6.33;2.80;;;;;;;;;;4993683;28;20248;-57
2021/01/08 10:17:51;;;;;;;3.90;2.50;;;;;;;;;;4993684;28;20299;-57
2021/01/08 10:20:18;;;;;;;5.73;2.13;;;;;;;;;;4993644;28;20259;-57
2021/01/08 10:22:48;;;;;;;3.03;2.07;;;;;;;;;;4993625;28;20255;-57
2021/01/08 10:25:24;;;;;;;3.73;2.57;;;;;;;;;;5000608;28;20628;-57
2021/01/08 10:27:50;;;;;;;4.77;2.43;;;;;;;;;;5012806;28;20244;-57
2021/01/08 10:30:17;;;;;;;5.27;2.30;;;;;;;;;;5013251;28;20313;-57
2021/01/08 10:32:50;;;;;;;3.97;2.13;;;;;;;;;;5012806;28;20334;-57
2021/01/08 10:35:20;;;;;;;4.40;2.60;;;;;;;;;;5012850;28;20259;-57
2021/01/08 10:37:47;;;;;;;5.40;2.67;;;;;;;;;;5012798;28;20259;-57
2021/01/08 10:40:14;;;;;;;3.93;2.50;;;;;;;;;;5012830;28;20286;-57
2021/01/08 10:42:41;;;;;;;3.97;2.67;;;;;;;;;;5012973;28;20263;-57
2021/01/08 10:45:08;;;;;;;5.03;2.67;;;;;;;;;;5015964;28;20355;-57
2021/01/08 10:47:34;;;;;;;3.53;2.70;;;;;;;;;;5016895;28;20251;-57
2021/01/08 10:50:02;;;;;;;4.70;3.17;;;;;;;;;;5016667;28;20322;-57
2021/01/08 10:52:28;;;;;;;5.67;2.83;;;;;;;;;;5016677;28;20283;-57
2021/01/08 10:54:56;;;;;;;6.13;2.50;;;;;;;;;;5016770;28;20281;-57
2021/01/08 10:57:22;;;;;;;5.33;2.20;;;;;;;;;;5016517;28;20683;-57
2021/01/08 10:59:49;;;;;;;3.53;2.67;;;;;;;;;;5016682;28;20722;-57
2021/01/08 11:02:16;;;;;;;4.77;2.80;;;;;;;;;;5016576;28;20259;-57
2021/01/08 11:04:44;;;;;;;3.40;2.27;;;;;;;;;;5016455;28;20251;-57
2021/01/08 11:07:11;;;;;;;3.97;2.80;;;;;;;;;;5016372;28;20249;-57
2021/01/08 11:09:38;;;;;;;4.13;3.07;;;;;;;;;;5016625;28;20321;-57
2021/01/08 11:12:05;;;;;;;8.60;2.90;;;;;;;;;;5016371;28;20295;-57
2021/01/08 11:14:32;;;;;;;5.97;3.97;;;;;;;;;;5016387;28;20255;-57
2021/01/08 11:16:59;;;;;;;5.70;3.50;;;;;;;;;;5016264;28;20278;-57
2021/01/08 11:19:26;;;;;;;4.07;2.70;;;;;;;;;;5016133;28;20255;-57
2021/01/08 11:21:56;;;;;;;5.17;2.90;;;;;;;;;;5016215;28;20266;-57
2021/01/08 11:24:23;;;;;;;5.13;2.90;;;;;;;;;;5016091;28;20256;-57
2021/01/08 11:26:50;;;;;;;4.50;2.60;;;;;;;;;;5016775;28;20291;-57
2021/01/08 11:29:17;;;;;;;3.90;2.70;;;;;;;;;;5015967;28;20287;-57
2021/01/08 11:31:44;;;;;;;4.30;2.40;;;;;;;;;;5016096;28;20290;-57
2021/01/08 11:34:12;;;;;;;4.03;2.87;;;;;;;;;;5016050;28;20255;-57
2021/01/08 11:36:39;;;;;;;5.90;3.33;;;;;;;;;;5015999;28;20284;-57
2021/01/08 11:39:09;;;;;;;3.53;2.50;;;;;;;;;;5015802;28;20264;-57
2021/01/08 11:41:35;;;;;;;4.03;2.57;;;;;;;;;;5015816;28;20266;-57
2021/01/08 11:44:02;;;;;;;4.27;3.10;;;;;;;;;;5015841;28;20258;-57
2021/01/08 11:46:29;;;;;;;4.40;2.57;;;;;;;;;;5015840;28;20260;-57
2021/01/08 11:48:56;;;;;;;6.10;2.93;;;;;;;;;;5015849;28;20348;-57
2021/01/08 11:51:23;;;;;;;4.60;2.90;;;;;;;;;;5015546;28;20271;-57
2021/01/08 11:53:53;;;;;;;5.87;3.60;;;;;;;;;;5015656;28;20309;-57
2021/01/08 11:56:30;;;;;;;5.73;3.83;;;;;;;;;;5014953;28;20324;-56
2021/01/08 11:58:57;;;;;;;4.80;2.83;;;;;;;;;;5015558;28;20774;-57
2021/01/08 12:01:27;;;;;;;7.07;5.03;;;;;;;;;;5015369;28;20258;-56
2021/01/08 12:03:54;;;;;;;6.90;4.67;;;;;;;;;;5015747;28;20251;-57
2021/01/08 12:06:25;;;;;;;6.37;4.10;;;;;;;;;;5015408;28;20275;-57
2021/01/08 12:08:52;;;;;;;7.57;4.50;;;;;;;;;;5015248;28;20247;-56
2021/01/08 12:11:19;;;;;;;7.53;4.80;;;;;;;;;;5015106;28;20279;-57
2021/01/08 12:13:46;;;;;;;8.37;5.10;;;;;;;;;;5015106;28;20757;-57
2021/01/08 12:16:13;;;;;;;18.33;8.47;;;;;;;;;;4997926;28;20607;-57
2021/01/08 12:18:40;;;;;;;19.30;8.70;;;;;;;;;;5015141;28;20251;-57
2021/01/08 12:21:07;;;;;;;12.87;6.60;;;;;;;;;;5015134;28;20598;-57
2021/01/08 12:23:34;;;;;;;13.87;7.83;;;;;;;;;;5015031;28;20306;-57
2021/01/08 12:26:01;;;;;;;14.67;7.33;;;;;;;;;;5015630;28;20283;-57
2021/01/08 12:28:28;;;;;;;13.57;7.60;;;;;;;;;;5014969;28;20346;-57
2021/01/08 12:30:55;;;;;;;16.97;7.60;;;;;;;;;;5014913;28;20334;-57
2021/01/08 12:33:21;;;;;;;14.47;6.80;;;;;;;;;;5014687;28;20283;-57
2021/01/08 12:35:48;;;;;;;9.00;5.63;;;;;;;;;;5014742;28;20598;-56
2021/01/08 12:38:15;;;;;;;17.60;7.90;;;;;;;;;;5014704;28;20278;-57
2021/01/08 12:40:42;;;;;;;20.97;9.40;;;;;;;;;;5014611;28;20255;-57
2021/01/08 12:43:08;;;;;;;22.83;9.53;;;;;;;;;;5014609;28;20273;-56
2021/01/08 12:45:35;;;;;;;14.60;8.00;;;;;;;;;;5014753;28;20316;-57
2021/01/08 12:48:02;;;;;;;12.97;7.00;;;;;;;;;;4996947;28;20278;-57
2021/01/08 12:50:29;;;;;;;26.60;10.67;;;;;;;;;;5014440;28;20282;-57
2021/01/08 12:52:56;;;;;;;20.30;9.07;;;;;;;;;;5014376;28;20341;-57
2021/01/08 12:55:23;;;;;;;16.33;8.53;;;;;;;;;;5014296;28;20739;-56
2021/01/08 12:57:49;;;;;;;17.77;7.80;;;;;;;;;;5014477;28;20256;-57
2021/01/08 13:00:17;;;;;;;14.20;6.60;;;;;;;;;;5014268;28;20607;-56
2021/01/08 13:02:44;;;;;;;18.77;7.97;;;;;;;;;;5014289;28;20271;-57
2021/01/08 13:05:18;;;;;;;18.80;8.33;;;;;;;;;;5014356;28;20339;-56
2021/01/08 13:07:45;;;;;;;19.33;7.77;;;;;;;;;;5014175;28;20263;-56
2021/01/08 13:10:12;;;;;;;14.57;7.50;;;;;;;;;;5014055;28;20342;-56
2021/01/08 13:12:39;;;;;;;17.97;8.00;;;;;;;;;;5013840;28;20649;-56
2021/01/08 13:15:06;;;;;;;28.77;9.53;;;;;;;;;;5014137;28;20274;-56
2021/01/08 13:17:33;;;;;;;16.83;7.73;;;;;;;;;;5013928;28;20251;-57
2021/01/08 13:20:00;;;;;;;21.03;7.87;;;;;;;;;;5013972;28;20259;-56
2021/01/08 13:22:27;;;;;;;20.03;8.80;;;;;;;;;;5013858;28;20334;-57
2021/01/08 13:24:54;;;;;;;17.17;8.17;;;;;;;;;;5014856;28;20338;-56
2021/01/08 13:27:20;;;;;;;13.63;6.37;;;;;;;;;;5013795;28;20267;-57
2021/01/08 13:29:47;;;;;;;13.20;6.47;;;;;;;;;;5013772;28;20254;-56
2021/01/08 13:32:14;;;;;;;16.70;6.83;;;;;;;;;;5013766;28;20279;-56
2021/01/08 13:34:41;;;;;;;18.73;8.47;;;;;;;;;;5013748;28;20261;-56
2021/01/08 13:37:07;;;;;;;18.00;8.17;;;;;;;;;;5013721;28;20742;-56
2021/01/08 13:39:34;;;;;;;13.57;7.43;;;;;;;;;;5013766;28;20576;-56
2021/01/08 13:42:05;;;;;;;14.70;7.80;;;;;;;;;;5013606;28;20251;-56
2021/01/08 13:44:33;;;;;;;13.70;7.00;;;;;;;;;;5013573;28;20259;-56
2021/01/08 13:47:00;;;;;;;14.70;7.97;;;;;;;;;;5013546;28;20327;-56
2021/01/08 13:49:26;;;;;;;22.07;9.97;;;;;;;;;;5013569;28;20255;-56
2021/01/08 13:51:57;;;;;;;24.73;9.93;;;;;;;;;;5013368;28;20374;-56
2021/01/08 13:54:24;;;;;;;17.83;8.73;;;;;;;;;;5013436;28;20650;-56
2021/01/08 13:56:51;;;;;;;17.03;9.30;;;;;;;;;;5013413;28;20350;-56
2021/01/08 13:59:17;;;;;;;18.17;9.33;;;;;;;;;;5013270;28;20318;-57
2021/01/08 14:01:44;;;;;;;13.67;7.40;;;;;;;;;;5013300;28;20286;-56
2021/01/08 14:04:12;;;;;;;16.60;7.37;;;;;;;;;;5013613;28;20283;-56
2021/01/08 14:06:41;;;;;;;10.63;7.10;;;;;;;;;;5013292;28;20705;-56
2021/01/08 14:09:08;;;;;;;17.00;6.83;;;;;;;;;;5013248;28;20259;-56
2021/01/08 14:11:36;;;;;;;4.70;3.60;;;;;;;;;;5013099;28;20318;-56
2021/01/08 14:14:05;;;;;;;4.80;3.00;;;;;;;;;;5013063;28;20247;-56
2021/01/08 14:16:31;;;;;;;9.07;3.53;;;;;;;;;;5013275;28;20252;-56
2021/01/08 14:18:58;;;;;;;6.17;2.90;;;;;;;;;;5012399;28;20262;-56
2021/01/08 14:21:35;;;;;;;5.53;2.90;;;;;;;;;;5013155;28;20248;-56
2021/01/08 14:24:02;;;;;;;5.10;2.63;;;;;;;;;;5013160;28;20069;-56
2021/01/08 14:26:29;;;;;;;4.20;2.60;;;;;;;;;;5013646;28;20053;-56
2021/01/08 14:28:56;;;;;;;6.03;2.40;;;;;;;;;;5013049;28;20026;-56
2021/01/08 14:31:26;;;;;;;4.07;2.17;;;;;;;;;;5012965;28;20034;-56
2021/01/08 14:33:54;;;;;;;3.83;2.37;;;;;;;;;;5012943;28;20022;-56
2021/01/08 14:36:24;;;;;;;4.83;2.63;;;;;;;;;;5012875;28;20377;-57
2021/01/08 14:38:51;;;;;;;8.53;2.60;;;;;;;;;;5012798;28;20034;-58
2021/01/08 14:41:18;;;;;;;6.50;2.80;;;;;;;;;;5013138;28;20018;-58
2021/01/08 14:43:44;;;;;;;6.73;2.60;;;;;;;;;;5012930;28;20026;-58
2021/01/08 14:46:12;;;;;;;4.23;2.50;;;;;;;;;;5012940;28;20504;-58
2021/01/08 14:48:40;;;;;;;5.77;3.00;;;;;;;;;;5012801;28;20034;-58